createdAt,value
2018-06-21T00:01:16.104Z,23.70
2018-06-21T00:03:43.687Z,23.70
2018-06-21T00:06:12.435Z,23.70
2018-06-21T00:08:40.055Z,23.70
2018-06-21T00:11:07.630Z,23.70
2018-06-21T00:13:35.184Z,23.70
2018-06-21T00:16:02.867Z,23.70
2018-06-21T00:18:30.511Z,23.60
2018-06-21T00:20:58.162Z,23.50
2018-06-21T00:23:25.759Z,23.50
2018-06-21T00:25:53.313Z,23.50
2018-06-21T00:28:20.939Z,23.50
2018-06-21T00:30:48.498Z,23.50
2018-06-21T00:33:16.073Z,23.40
2018-06-21T00:35:43.670Z,23.30
2018-06-21T00:38:11.222Z,23.30
2018-06-21T00:40:38.802Z,23.30
2018-06-21T00:43:06.325Z,23.20
2018-06-21T00:45:33.952Z,23.10
2018-06-21T00:48:01.527Z,23.20
2018-06-21T00:50:29.237Z,23.10
2018-06-21T00:52:56.742Z,23.10
2018-06-21T00:55:35.704Z,23.10
2018-06-21T00:58:03.304Z,23.00
2018-06-21T01:00:30.935Z,23.00
2018-06-21T01:02:58.528Z,22.90
2018-06-21T01:05:26.064Z,23.00
2018-06-21T01:07:53.595Z,22.90
2018-06-21T01:10:21.148Z,23.00
2018-06-21T01:12:48.784Z,22.90
2018-06-21T01:15:16.505Z,22.90
2018-06-21T01:17:43.996Z,22.90
2018-06-21T01:20:11.595Z,22.90
2018-06-21T01:22:39.183Z,22.90
2018-06-21T01:25:06.732Z,22.80
2018-06-21T01:27:34.380Z,22.80
2018-06-21T01:30:02.027Z,22.70
2018-06-21T01:32:29.601Z,22.60
2018-06-21T01:34:57.155Z,22.60
2018-06-21T01:37:24.687Z,22.50
2018-06-21T01:39:52.304Z,22.50
2018-06-21T01:42:19.967Z,22.50
2018-06-21T01:44:47.543Z,22.40
2018-06-21T01:47:15.059Z,22.40
2018-06-21T01:49:42.605Z,22.40
2018-06-21T01:52:10.158Z,22.40
2018-06-21T01:54:37.598Z,22.30
2018-06-21T01:57:05.250Z,22.30
2018-06-21T01:59:32.805Z,22.30
2018-06-21T02:02:00.362Z,22.20
2018-06-21T02:04:27.861Z,22.20
2018-06-21T02:06:55.381Z,22.20
2018-06-21T02:09:22.924Z,22.10
2018-06-21T02:11:50.518Z,22.10
2018-06-21T02:14:18.083Z,21.90
2018-06-21T02:16:45.657Z,21.80
2018-06-21T02:19:13.258Z,21.70
2018-06-21T02:21:40.851Z,21.70
2018-06-21T02:24:08.504Z,21.70
2018-06-21T02:26:36.052Z,21.70
2018-06-21T02:29:03.663Z,21.70
2018-06-21T02:31:31.264Z,21.70
2018-06-21T02:33:58.878Z,21.70
2018-06-21T02:36:26.343Z,21.70
2018-06-21T02:38:53.916Z,21.60
2018-06-21T02:41:21.486Z,21.60
2018-06-21T02:43:49.042Z,21.60
2018-06-21T02:46:16.533Z,21.60
2018-06-21T02:48:44.171Z,21.60
2018-06-21T02:51:11.798Z,21.60
2018-06-21T02:53:39.353Z,21.70
2018-06-21T02:56:06.985Z,21.60
2018-06-21T02:58:34.546Z,21.60
2018-06-21T03:01:02.241Z,21.60
2018-06-21T03:03:29.812Z,21.60
2018-06-21T03:05:57.420Z,21.60
2018-06-21T03:08:25.036Z,21.50
2018-06-21T03:10:52.612Z,21.40
2018-06-21T03:13:20.152Z,21.40
2018-06-21T03:15:47.655Z,21.40
2018-06-21T03:18:15.133Z,21.30
2018-06-21T03:20:42.725Z,21.30
2018-06-21T03:23:10.260Z,21.30
2018-06-21T03:25:38.865Z,21.20
2018-06-21T03:28:06.343Z,21.20
2018-06-21T03:30:33.927Z,21.10
2018-06-21T03:33:01.439Z,21.10
2018-06-21T03:35:29.073Z,21.10
2018-06-21T03:37:56.601Z,21.00
2018-06-21T03:40:24.201Z,21.00
2018-06-21T03:42:51.768Z,21.00
2018-06-21T03:45:19.336Z,21.00
2018-06-21T03:47:46.889Z,21.00
2018-06-21T03:50:15.263Z,21.00
2018-06-21T03:52:42.908Z,21.00
2018-06-21T03:55:10.403Z,21.00
2018-06-21T03:57:37.995Z,21.00
2018-06-21T04:00:05.759Z,21.00
2018-06-21T04:02:33.415Z,21.00
2018-06-21T04:05:01.003Z,21.00
2018-06-21T04:07:28.594Z,21.00
2018-06-21T04:09:57.211Z,21.00
2018-06-21T04:12:24.857Z,21.10
2018-06-21T04:14:52.414Z,21.00
2018-06-21T04:17:20.004Z,21.10
2018-06-21T04:19:47.548Z,21.10
2018-06-21T04:22:15.135Z,21.00
2018-06-21T04:24:42.680Z,21.00
2018-06-21T04:27:10.165Z,21.00
2018-06-21T04:29:37.734Z,21.00
2018-06-21T04:32:05.265Z,21.00
2018-06-21T04:34:32.887Z,21.00
2018-06-21T04:37:00.432Z,21.00
2018-06-21T04:39:28.042Z,21.00
2018-06-21T04:41:55.758Z,21.00
2018-06-21T04:44:23.390Z,21.10
2018-06-21T04:46:50.961Z,21.00
2018-06-21T04:49:18.605Z,21.00
2018-06-21T04:51:46.118Z,21.00
2018-06-21T04:54:13.589Z,21.10
2018-06-21T04:56:41.123Z,21.10
2018-06-21T04:59:08.702Z,21.10
2018-06-21T05:01:36.324Z,21.10
2018-06-21T05:04:03.916Z,21.20
2018-06-21T05:06:31.551Z,21.20
2018-06-21T05:08:59.102Z,21.20
2018-06-21T05:11:26.714Z,21.30
2018-06-21T05:13:54.277Z,21.30
2018-06-21T05:16:23.958Z,21.30
2018-06-21T05:18:51.502Z,21.30
2018-06-21T05:21:19.105Z,21.30
2018-06-21T05:23:46.687Z,21.30
2018-06-21T05:26:16.397Z,21.30
2018-06-21T05:28:44.214Z,21.30
2018-06-21T05:31:11.812Z,21.30
2018-06-21T05:33:39.343Z,21.40
2018-06-21T05:36:06.856Z,21.40
2018-06-21T05:38:34.363Z,21.40
2018-06-21T05:41:01.935Z,21.40
2018-06-21T05:43:29.419Z,21.50
2018-06-21T05:45:58.065Z,21.40
2018-06-21T05:48:25.584Z,21.50
2018-06-21T05:50:53.061Z,21.50
2018-06-21T05:53:20.628Z,21.60
2018-06-21T05:55:48.099Z,21.60
2018-06-21T05:58:15.600Z,21.70
2018-06-21T06:00:43.073Z,21.70
2018-06-21T06:03:10.598Z,21.70
2018-06-21T06:05:38.130Z,21.70
2018-06-21T06:08:06.798Z,21.80
2018-06-21T06:10:34.346Z,21.80
2018-06-21T06:13:01.925Z,21.80
2018-06-21T06:15:29.534Z,21.90
2018-06-21T06:17:56.998Z,21.90
2018-06-21T06:20:24.517Z,21.90
2018-06-21T06:22:52.098Z,22.00
2018-06-21T06:25:20.703Z,22.00
2018-06-21T06:27:48.288Z,22.00
2018-06-21T06:30:15.867Z,22.00
2018-06-21T06:32:43.316Z,22.00
2018-06-21T06:35:10.876Z,22.10
2018-06-21T06:37:39.390Z,22.10
2018-06-21T06:40:06.967Z,22.10
2018-06-21T06:42:34.473Z,22.20
2018-06-21T06:45:01.976Z,22.20
2018-06-21T06:47:29.490Z,22.20
2018-06-21T06:49:57.230Z,22.20
2018-06-21T06:52:24.969Z,22.20
2018-06-21T06:54:52.527Z,22.20
2018-06-21T06:57:20.088Z,22.20
2018-06-21T06:59:47.702Z,22.30
2018-06-21T07:02:15.300Z,22.30
2018-06-21T07:04:42.926Z,22.50
2018-06-21T07:07:10.449Z,22.50
2018-06-21T07:09:39.023Z,22.50
2018-06-21T07:12:06.594Z,22.60
2018-06-21T07:14:34.257Z,22.60
2018-06-21T07:17:01.721Z,22.50
2018-06-21T07:19:29.415Z,22.60
2018-06-21T07:21:56.952Z,22.60
2018-06-21T07:24:24.494Z,22.70
2018-06-21T07:26:52.062Z,22.70
2018-06-21T07:29:19.586Z,22.80
2018-06-21T07:31:47.180Z,22.80
2018-06-21T07:34:14.749Z,22.80
2018-06-21T07:36:42.364Z,22.90
2018-06-21T07:39:10.182Z,23.00
2018-06-21T07:41:37.785Z,23.00
2018-06-21T07:44:05.490Z,23.10
2018-06-21T07:46:33.674Z,23.20
2018-06-21T07:49:01.466Z,23.20
2018-06-21T07:51:28.974Z,23.20
2018-06-21T07:53:56.566Z,23.30
2018-06-21T07:56:24.123Z,23.30
2018-06-21T07:58:51.657Z,23.40
2018-06-21T08:01:19.280Z,23.40
2018-06-21T08:03:46.929Z,23.40
2018-06-21T08:06:14.471Z,23.40
2018-06-21T08:08:41.989Z,23.40
2018-06-21T08:11:09.574Z,23.40
2018-06-21T08:13:37.075Z,23.40
2018-06-21T08:16:04.678Z,23.50
2018-06-21T08:18:32.245Z,23.50
2018-06-21T08:20:59.822Z,23.60
2018-06-21T08:23:27.421Z,23.50
2018-06-21T08:25:54.972Z,23.50
2018-06-21T08:28:22.582Z,23.50
2018-06-21T08:30:50.110Z,23.50
2018-06-21T08:33:18.645Z,23.50
2018-06-21T08:35:46.099Z,23.60
2018-06-21T08:38:13.621Z,23.70
2018-06-21T08:40:41.238Z,23.70
2018-06-21T08:43:08.773Z,23.70
2018-06-21T08:45:37.292Z,23.70
2018-06-21T08:48:04.859Z,23.70
2018-06-21T08:50:32.427Z,23.70
2018-06-21T08:52:59.994Z,23.70
2018-06-21T08:55:27.590Z,23.80
2018-06-21T08:57:56.187Z,23.90
2018-06-21T09:00:23.771Z,23.90
2018-06-21T09:02:51.286Z,24.10
2018-06-21T09:05:18.778Z,24.10
2018-06-21T09:07:46.390Z,24.10
2018-06-21T09:10:13.914Z,24.10
2018-06-21T09:12:41.440Z,24.20
2018-06-21T09:15:09.901Z,24.30
2018-06-21T09:17:39.497Z,24.30
2018-06-21T09:20:07.055Z,24.30
2018-06-21T09:22:34.606Z,24.30
2018-06-21T09:25:02.380Z,24.30
2018-06-21T09:27:30.292Z,24.40
2018-06-21T09:29:57.998Z,24.50
2018-06-21T09:32:27.920Z,24.50
2018-06-21T09:34:55.503Z,24.60
2018-06-21T09:37:28.571Z,24.70
2018-06-21T09:40:01.710Z,24.70
2018-06-21T09:42:34.918Z,24.80
2018-06-21T09:45:02.418Z,24.90
2018-06-21T09:47:36.632Z,24.90
2018-06-21T09:50:04.168Z,25.00
2018-06-21T09:52:31.673Z,25.00
2018-06-21T09:54:59.178Z,25.00
2018-06-21T09:57:26.721Z,25.20
2018-06-21T09:59:54.405Z,25.30
2018-06-21T10:02:21.996Z,25.30
2018-06-21T10:04:49.480Z,25.30
2018-06-21T10:07:16.975Z,25.30
2018-06-21T10:09:44.533Z,25.30
2018-06-21T10:12:12.194Z,25.30
2018-06-21T10:14:39.764Z,25.20
2018-06-21T10:17:08.682Z,25.20
2018-06-21T10:19:39.600Z,25.20
2018-06-21T10:22:07.328Z,25.10
2018-06-21T10:24:34.848Z,25.10
2018-06-21T10:27:02.440Z,25.10
2018-06-21T10:29:30.164Z,25.10
2018-06-21T10:31:57.678Z,25.10
2018-06-21T10:34:25.227Z,25.10
2018-06-21T10:36:52.767Z,25.10
2018-06-21T10:39:20.308Z,25.20
2018-06-21T10:41:47.917Z,25.30
2018-06-21T10:44:15.407Z,25.30
2018-06-21T10:46:42.890Z,25.40
2018-06-21T10:49:10.496Z,25.50
2018-06-21T10:51:38.144Z,25.50
2018-06-21T10:54:05.772Z,25.50
2018-06-21T10:56:33.524Z,25.70
2018-06-21T10:59:01.006Z,25.70
2018-06-21T11:01:28.991Z,25.70
2018-06-21T11:03:56.709Z,25.70
2018-06-21T11:06:24.595Z,25.70
2018-06-21T11:08:54.638Z,25.70
2018-06-21T11:11:22.216Z,25.70
2018-06-21T11:13:49.979Z,25.70
2018-06-21T11:16:17.548Z,25.70
2018-06-21T11:18:45.122Z,25.60
2018-06-21T11:21:17.382Z,25.60
2018-06-21T11:23:44.908Z,25.60
2018-06-21T11:26:12.542Z,25.60
2018-06-21T11:28:40.163Z,25.70
2018-06-21T11:31:07.634Z,25.70
2018-06-21T11:33:35.241Z,25.70
2018-06-21T11:36:02.857Z,25.80
2018-06-21T11:38:30.397Z,25.80
2018-06-21T11:40:57.906Z,25.90
2018-06-21T11:43:25.556Z,25.90
2018-06-21T11:45:53.108Z,25.90
2018-06-21T11:48:20.571Z,25.90
2018-06-21T11:50:48.051Z,25.90
2018-06-21T11:53:16.621Z,25.80
2018-06-21T11:55:44.208Z,25.90
2018-06-21T11:58:14.002Z,25.90
2018-06-21T12:00:41.614Z,25.90
2018-06-21T12:03:09.108Z,25.90
2018-06-21T12:05:36.622Z,25.80
2018-06-21T12:08:04.180Z,25.90
2018-06-21T12:10:31.770Z,25.90
2018-06-21T12:12:59.343Z,25.90
2018-06-21T12:15:28.001Z,26.00
2018-06-21T12:17:55.553Z,26.00
2018-06-21T12:20:23.046Z,26.20
2018-06-21T12:22:50.630Z,26.20
2018-06-21T12:25:18.125Z,26.10
2018-06-21T12:27:45.623Z,26.10
2018-06-21T12:30:13.119Z,26.10
2018-06-21T12:32:40.724Z,26.10
2018-06-21T12:35:08.355Z,26.10
2018-06-21T12:37:35.949Z,26.20
2018-06-21T12:40:03.540Z,26.20
2018-06-21T12:42:31.081Z,26.10
2018-06-21T12:44:58.664Z,26.00
2018-06-21T12:47:27.248Z,26.00
2018-06-21T12:49:54.899Z,26.00
2018-06-21T12:52:22.603Z,25.90
2018-06-21T12:54:50.130Z,25.90
2018-06-21T12:57:17.665Z,26.00
2018-06-21T12:59:45.193Z,26.00
2018-06-21T13:02:12.756Z,26.00
2018-06-21T13:04:40.408Z,25.90
2018-06-21T13:07:07.963Z,25.80
2018-06-21T13:09:46.708Z,25.80
2018-06-21T13:12:27.984Z,25.70
2018-06-21T13:14:56.082Z,25.60
2018-06-21T13:17:24.214Z,25.60
2018-06-21T13:19:51.766Z,25.60
2018-06-21T13:22:20.356Z,25.60
2018-06-21T13:24:47.951Z,25.60
2018-06-21T13:27:15.486Z,25.60
2018-06-21T13:29:43.195Z,25.60
2018-06-21T13:32:10.765Z,25.50
2018-06-21T13:34:38.598Z,25.50
2018-06-21T13:37:06.675Z,25.40
2018-06-21T13:39:34.281Z,25.30
2018-06-21T13:42:01.868Z,25.30
2018-06-21T13:44:29.659Z,25.30
2018-06-21T13:46:57.171Z,25.40
2018-06-21T13:49:24.856Z,25.40
2018-06-21T13:51:52.492Z,25.60
2018-06-21T13:54:20.104Z,25.70
2018-06-21T13:56:47.792Z,25.80
2018-06-21T13:59:17.445Z,25.80
2018-06-21T14:01:45.062Z,25.80
2018-06-21T14:04:12.609Z,25.70
2018-06-21T14:06:40.386Z,25.70
2018-06-21T14:09:09.491Z,25.60
2018-06-21T14:11:37.169Z,25.60
2018-06-21T14:14:04.710Z,25.60
2018-06-21T14:16:32.287Z,25.60
2018-06-21T14:18:59.887Z,25.60
2018-06-21T14:21:27.656Z,25.70
2018-06-21T14:23:55.801Z,25.60
2018-06-21T14:26:23.510Z,25.60
2018-06-21T14:28:51.127Z,25.40
2018-06-21T14:31:18.786Z,25.40
2018-06-21T14:33:46.369Z,25.30
2018-06-21T14:36:13.857Z,25.40
2018-06-21T14:38:41.348Z,25.40
2018-06-21T14:41:08.820Z,25.50
2018-06-21T14:43:36.352Z,25.40
2018-06-21T14:46:03.843Z,25.50
2018-06-21T14:48:31.533Z,25.40
2018-06-21T14:50:58.997Z,25.30
2018-06-21T14:53:26.522Z,25.30
2018-06-21T14:55:54.071Z,25.10
2018-06-21T14:58:21.699Z,25.00
2018-06-21T15:00:49.295Z,24.90
2018-06-21T15:03:16.748Z,24.90
2018-06-21T15:05:44.332Z,25.00
2018-06-21T15:08:11.971Z,24.90
2018-06-21T15:10:39.418Z,24.90
2018-06-21T15:13:06.935Z,24.80
2018-06-21T15:15:34.431Z,24.90
2018-06-21T15:18:01.917Z,24.80
2018-06-21T15:20:29.478Z,24.80
2018-06-21T15:22:57.097Z,24.80
2018-06-21T15:25:24.624Z,24.90
2018-06-21T15:27:52.229Z,24.80
2018-06-21T15:30:19.850Z,24.70
2018-06-21T15:32:47.356Z,24.70
2018-06-21T15:35:14.937Z,24.70
2018-06-21T15:37:42.526Z,24.70
2018-06-21T15:40:10.108Z,24.60
2018-06-21T15:42:37.594Z,24.60
2018-06-21T15:45:05.265Z,24.60
2018-06-21T15:47:32.762Z,24.50
2018-06-21T15:50:00.320Z,24.50
2018-06-21T15:52:27.855Z,24.50
2018-06-21T15:54:55.445Z,24.50
2018-06-21T15:57:22.973Z,24.40
2018-06-21T15:59:50.430Z,24.50
2018-06-21T16:02:18.000Z,24.50
2018-06-21T16:04:45.551Z,24.50
2018-06-21T16:07:13.119Z,24.50
2018-06-21T16:09:40.736Z,24.50
2018-06-21T16:12:08.305Z,24.50
2018-06-21T16:14:35.818Z,24.40
2018-06-21T16:17:03.507Z,24.30
2018-06-21T16:19:31.201Z,24.20
2018-06-21T16:21:58.728Z,24.10
2018-06-21T16:24:26.317Z,24.00
2018-06-21T16:26:53.904Z,24.00
2018-06-21T16:29:21.405Z,24.00
2018-06-21T16:31:49.365Z,24.00
2018-06-21T16:34:16.846Z,23.90
2018-06-21T16:36:44.374Z,23.90
2018-06-21T16:39:11.886Z,23.80
2018-06-21T16:41:39.914Z,23.70
2018-06-21T16:44:07.448Z,23.70
2018-06-21T16:46:35.155Z,23.70
2018-06-21T16:49:02.636Z,23.70
2018-06-21T16:51:30.173Z,23.60
2018-06-21T16:53:57.657Z,23.60
2018-06-21T16:56:25.273Z,23.50
2018-06-21T16:58:52.939Z,23.50
2018-06-21T17:01:20.539Z,23.50
2018-06-21T17:03:48.096Z,23.40
2018-06-21T17:06:15.731Z,23.40
2018-06-21T17:08:43.261Z,23.30
2018-06-21T17:11:11.953Z,23.30
2018-06-21T17:13:39.516Z,23.20
2018-06-21T17:16:06.977Z,23.10
2018-06-21T17:18:34.460Z,23.10
2018-06-21T17:21:01.999Z,23.10
2018-06-21T17:23:29.563Z,23.00
2018-06-21T17:25:57.055Z,22.90
2018-06-21T17:28:24.555Z,22.90
2018-06-21T17:30:52.067Z,23.00
2018-06-21T17:33:19.648Z,22.90
2018-06-21T17:35:47.163Z,22.90
2018-06-21T17:38:14.841Z,22.90
2018-06-21T17:40:42.381Z,22.90
2018-06-21T17:43:09.918Z,22.90
2018-06-21T17:45:37.461Z,22.90
2018-06-21T17:48:05.114Z,22.80
2018-06-21T17:50:32.666Z,22.80
2018-06-21T17:53:00.132Z,22.80
2018-06-21T17:55:27.687Z,22.80
2018-06-21T17:57:55.232Z,22.80
2018-06-21T18:00:22.753Z,22.80
2018-06-21T18:02:51.292Z,22.80
2018-06-21T18:05:18.869Z,22.80
2018-06-21T18:07:46.493Z,22.80
2018-06-21T18:10:14.064Z,22.70
2018-06-21T18:12:41.604Z,22.70
2018-06-21T18:15:09.217Z,22.60
2018-06-21T18:17:36.767Z,22.60
2018-06-21T18:20:04.375Z,22.60
2018-06-21T18:22:31.884Z,22.50
2018-06-21T18:24:59.500Z,22.40
2018-06-21T18:27:27.120Z,22.30
2018-06-21T18:29:54.672Z,22.30
2018-06-21T18:32:22.299Z,22.20
2018-06-21T18:34:49.888Z,22.10
2018-06-21T18:37:17.340Z,22.10
2018-06-21T18:39:44.834Z,22.00
2018-06-21T18:42:12.389Z,21.90
2018-06-21T18:44:39.955Z,21.90
2018-06-21T18:47:07.587Z,21.80
2018-06-21T18:49:35.039Z,21.80
2018-06-21T18:52:02.603Z,21.80
2018-06-21T18:54:30.081Z,21.60
2018-06-21T18:56:57.746Z,21.60
2018-06-21T18:59:25.436Z,21.50
2018-06-21T19:01:53.117Z,21.50
2018-06-21T19:04:20.749Z,21.40
2018-06-21T19:06:54.028Z,21.30
2018-06-21T19:09:27.382Z,21.30
2018-06-21T19:11:55.044Z,21.20
2018-06-21T19:14:22.563Z,21.20
2018-06-21T19:16:50.211Z,21.20
2018-06-21T19:19:17.779Z,21.20
2018-06-21T19:21:45.396Z,21.20
2018-06-21T19:24:12.977Z,21.10
2018-06-21T19:26:40.486Z,21.00
2018-06-21T19:29:08.048Z,21.00
2018-06-21T19:31:35.686Z,21.00
2018-06-21T19:34:03.213Z,21.00
2018-06-21T19:36:30.789Z,20.90
2018-06-21T19:38:58.294Z,20.90
2018-06-21T19:41:25.816Z,20.80
2018-06-21T19:43:53.461Z,20.70
2018-06-21T19:46:21.118Z,20.70
2018-06-21T19:48:48.620Z,20.70
2018-06-21T19:51:16.183Z,20.60
2018-06-21T19:53:43.716Z,20.50
2018-06-21T19:56:11.316Z,20.50
2018-06-21T19:58:46.217Z,20.40
2018-06-21T20:01:15.186Z,20.40
2018-06-21T20:03:42.745Z,20.40
2018-06-21T20:06:10.315Z,20.30
2018-06-21T20:08:37.885Z,20.30
2018-06-21T20:11:12.221Z,20.30
2018-06-21T20:13:48.627Z,20.20
2018-06-21T20:16:17.222Z,20.20
2018-06-21T20:18:44.812Z,20.20
2018-06-21T20:21:14.541Z,20.10
2018-06-21T20:23:43.922Z,20.00
2018-06-21T20:26:12.708Z,19.90
2018-06-21T20:28:40.660Z,19.80
2018-06-21T20:31:09.751Z,19.60
2018-06-21T20:33:37.367Z,19.50
2018-06-21T20:36:05.173Z,19.40
2018-06-21T20:38:32.985Z,19.40
2018-06-21T20:41:00.654Z,19.30
2018-06-21T20:43:28.390Z,19.20
2018-06-21T20:45:55.918Z,19.10
2018-06-21T20:48:23.376Z,19.10
2018-06-21T20:50:51.022Z,18.90
2018-06-21T20:53:18.556Z,18.80
2018-06-21T20:55:46.140Z,18.70
2018-06-21T20:58:13.642Z,18.60
2018-06-21T21:00:41.319Z,18.50
2018-06-21T21:03:08.907Z,18.40
2018-06-21T21:05:36.361Z,18.30
2018-06-21T21:08:03.899Z,18.20
2018-06-21T21:10:31.379Z,18.10
2018-06-21T21:12:58.875Z,18.00
2018-06-21T21:15:26.367Z,17.90
2018-06-21T21:17:53.822Z,17.90
2018-06-21T21:20:21.391Z,17.80
2018-06-21T21:22:48.916Z,17.70
2018-06-21T21:25:16.456Z,17.70
2018-06-21T21:27:43.988Z,17.60
2018-06-21T21:30:11.473Z,17.50
2018-06-21T21:32:39.802Z,17.50
2018-06-21T21:35:07.417Z,17.40
2018-06-21T21:37:34.985Z,17.30
2018-06-21T21:40:05.571Z,17.20
2018-06-21T21:42:34.410Z,17.20
2018-06-21T21:45:01.902Z,17.10
2018-06-21T21:47:29.441Z,17.00
2018-06-21T21:49:56.926Z,16.90
2018-06-21T21:52:24.473Z,16.80
2018-06-21T21:54:51.979Z,16.80
2018-06-21T21:57:19.531Z,16.70
2018-06-21T21:59:47.578Z,16.60
2018-06-21T22:02:15.448Z,16.60
2018-06-21T22:04:43.054Z,16.60
2018-06-21T22:07:10.583Z,16.50
2018-06-21T22:09:38.042Z,16.40
2018-06-21T22:12:05.762Z,16.30
2018-06-21T22:14:33.224Z,16.20
2018-06-21T22:17:00.645Z,16.10
2018-06-21T22:19:28.156Z,16.20
2018-06-21T22:21:55.586Z,16.10
2018-06-21T22:24:23.218Z,16.00
2018-06-21T22:26:50.665Z,16.00
2018-06-21T22:29:18.198Z,15.90
2018-06-21T22:31:45.750Z,15.90
2018-06-21T22:34:13.209Z,15.80
2018-06-21T22:36:40.772Z,15.80
2018-06-21T22:39:10.073Z,15.70
2018-06-21T22:41:37.630Z,15.60
2018-06-21T22:44:05.198Z,15.60
2018-06-21T22:46:32.639Z,15.50
2018-06-21T22:49:00.185Z,15.50
2018-06-21T22:51:27.759Z,15.40
2018-06-21T22:53:55.209Z,15.40
2018-06-21T22:56:23.798Z,15.30
2018-06-21T22:58:51.245Z,15.30
2018-06-21T23:01:18.790Z,15.20
2018-06-21T23:03:46.283Z,15.20
2018-06-21T23:06:13.755Z,15.20
2018-06-21T23:08:41.361Z,15.10
2018-06-21T23:11:08.804Z,15.10
2018-06-21T23:13:36.306Z,15.00
2018-06-21T23:16:03.882Z,15.00
2018-06-21T23:18:42.761Z,15.00
2018-06-21T23:21:10.379Z,14.90
2018-06-21T23:23:37.882Z,14.90
2018-06-21T23:26:05.512Z,14.90
2018-06-21T23:28:33.317Z,14.80
2018-06-21T23:31:01.077Z,14.70
2018-06-21T23:33:28.583Z,14.70
2018-06-21T23:35:56.140Z,14.60
2018-06-21T23:38:23.578Z,14.60
2018-06-21T23:40:51.101Z,14.50
2018-06-21T23:43:18.799Z,14.50
2018-06-21T23:45:48.283Z,14.40
2018-06-21T23:48:15.704Z,14.40
2018-06-21T23:50:43.342Z,14.40
2018-06-21T23:53:10.798Z,14.40
2018-06-21T23:55:38.280Z,14.30
2018-06-21T23:58:05.700Z,14.30
